sensor_id;sensor_type;location;lat;lon;timestamp;temperature;humidity
13436;DHT22;6790;49.520;8.504;2023-05-07T00:00:03;13.60;99.90
13436;DHT22;6790;49.520;8.504;2023-05-07T00:02:33;13.60;99.90
13436;DHT22;6790;49.520;8.504;2023-05-07T00:04:58;13.50;99.90
13436;DHT22;6790;49.520;8.504;2023-05-07T00:07:24;13.50;99.90
13436;DHT22;6790;49.520;8.504;2023-05-07T00:09:50;13.50;99.90
13436;DHT22;6790;49.520;8.504;2023-05-07T00:12:16;13.50;99.90
13436;DHT22;6790;49.520;8.504;2023-05-07T00:14:41;13.40;99.90
13436;DHT22;6790;49.520;8.504;2023-05-07T00:17:07;13.50;99.90
13436;DHT22;6790;49.520;8.504;2023-05-07T00:19:33;13.50;99.90
13436;DHT22;6790;49.520;8.504;2023-05-07T00:21:58;13.50;99.90
13436;DHT22;6790;49.520;8.504;2023-05-07T00:24:24;13.50;99.90
13436;DHT22;6790;49.520;8.504;2023-05-07T00:26:50;13.40;99.90
13436;DHT22;6790;49.520;8.504;2023-05-07T00:29:16;13.40;99.90
13436;DHT22;6790;49.520;8.504;2023-05-07T00:31:42;13.30;99.90
13436;DHT22;6790;49.520;8.504;2023-05-07T00:34:07;13.30;99.90
13436;DHT22;6790;49.520;8.504;2023-05-07T00:36:33;13.30;99.90
13436;DHT22;6790;49.520;8.504;2023-05-07T00:38:59;13.20;99.90
13436;DHT22;6790;49.520;8.504;2023-05-07T00:41:27;13.20;99.90
13436;DHT22;6790;49.520;8.504;2023-05-07T00:43:53;13.10;99.90
13436;DHT22;6790;49.520;8.504;2023-05-07T00:46:20;13.10;99.90
13436;DHT22;6790;49.520;8.504;2023-05-07T00:48:47;13.10;99.90
13436;DHT22;6790;49.520;8.504;2023-05-07T00:51:13;13.10;99.90
13436;DHT22;6790;49.520;8.504;2023-05-07T00:53:39;13.10;99.90
13436;DHT22;6790;49.520;8.504;2023-05-07T00:56:06;13.00;99.90
13436;DHT22;6790;49.520;8.504;2023-05-07T00:58:33;13.00;99.90
13436;DHT22;6790;49.520;8.504;2023-05-07T01:00:59;13.00;99.90
13436;DHT22;6790;49.520;8.504;2023-05-07T01:03:25;13.00;99.90
13436;DHT22;6790;49.520;8.504;2023-05-07T01:05:52;13.00;99.90
13436;DHT22;6790;49.520;8.504;2023-05-07T01:08:19;13.00;99.90
13436;DHT22;6790;49.520;8.504;2023-05-07T01:10:46;12.90;99.90
13436;DHT22;6790;49.520;8.504;2023-05-07T01:13:13;12.90;99.90
13436;DHT22;6790;49.520;8.504;2023-05-07T01:15:39;12.80;99.90
13436;DHT22;6790;49.520;8.504;2023-05-07T01:18:08;12.70;99.90
13436;DHT22;6790;49.520;8.504;2023-05-07T01:20:34;12.70;99.90
13436;DHT22;6790;49.520;8.504;2023-05-07T01:23:00;12.60;99.90
13436;DHT22;6790;49.520;8.504;2023-05-07T01:25:27;12.50;99.90
13436;DHT22;6790;49.520;8.504;2023-05-07T01:27:52;12.50;99.90
13436;DHT22;6790;49.520;8.504;2023-05-07T01:30:20;12.50;99.90
13436;DHT22;6790;49.520;8.504;2023-05-07T01:33:00;12.50;99.90
13436;DHT22;6790;49.520;8.504;2023-05-07T01:35:32;12.50;99.90
13436;DHT22;6790;49.520;8.504;2023-05-07T01:38:03;12.40;99.90
13436;DHT22;6790;49.520;8.504;2023-05-07T01:40:30;12.40;99.90
13436;DHT22;6790;49.520;8.504;2023-05-07T01:42:55;12.40;99.90
13436;DHT22;6790;49.520;8.504;2023-05-07T01:45:21;12.40;99.90
13436;DHT22;6790;49.520;8.504;2023-05-07T01:47:48;12.40;99.90
13436;DHT22;6790;49.520;8.504;2023-05-07T01:50:16;12.50;99.90
13436;DHT22;6790;49.520;8.504;2023-05-07T01:52:42;12.50;99.90
13436;DHT22;6790;49.520;8.504;2023-05-07T01:55:08;12.50;99.90
13436;DHT22;6790;49.520;8.504;2023-05-07T01:57:34;12.50;99.90
13436;DHT22;6790;49.520;8.504;2023-05-07T02:00:00;12.40;99.90
13436;DHT22;6790;49.520;8.504;2023-05-07T02:02:25;12.40;99.90
13436;DHT22;6790;49.520;8.504;2023-05-07T02:04:51;12.40;99.90
13436;DHT22;6790;49.520;8.504;2023-05-07T02:07:17;12.40;99.90
13436;DHT22;6790;49.520;8.504;2023-05-07T02:09:42;12.40;99.90
13436;DHT22;6790;49.520;8.504;2023-05-07T02:12:08;12.30;99.90
13436;DHT22;6790;49.520;8.504;2023-05-07T02:14:33;12.30;99.90
13436;DHT22;6790;49.520;8.504;2023-05-07T02:16:59;12.30;99.90
13436;DHT22;6790;49.520;8.504;2023-05-07T02:19:25;12.20;99.90
13436;DHT22;6790;49.520;8.504;2023-05-07T02:21:51;12.20;99.90
13436;DHT22;6790;49.520;8.504;2023-05-07T02:24:16;12.10;99.90
13436;DHT22;6790;49.520;8.504;2023-05-07T02:26:42;12.10;99.90
13436;DHT22;6790;49.520;8.504;2023-05-07T02:29:08;12.20;99.90
13436;DHT22;6790;49.520;8.504;2023-05-07T02:31:33;12.10;99.90
13436;DHT22;6790;49.520;8.504;2023-05-07T02:34:00;12.10;99.90
13436;DHT22;6790;49.520;8.504;2023-05-07T02:36:26;12.10;99.90
13436;DHT22;6790;49.520;8.504;2023-05-07T02:38:52;12.10;99.90
13436;DHT22;6790;49.520;8.504;2023-05-07T02:41:18;12.10;99.90
13436;DHT22;6790;49.520;8.504;2023-05-07T02:43:44;12.10;99.90
13436;DHT22;6790;49.520;8.504;2023-05-07T02:46:10;12.10;99.90
13436;DHT22;6790;49.520;8.504;2023-05-07T02:48:36;12.10;99.90
13436;DHT22;6790;49.520;8.504;2023-05-07T02:51:02;12.20;99.90
13436;DHT22;6790;49.520;8.504;2023-05-07T02:53:28;12.20;99.90
13436;DHT22;6790;49.520;8.504;2023-05-07T02:55:58;12.20;99.90
13436;DHT22;6790;49.520;8.504;2023-05-07T02:58:25;12.20;99.90
13436;DHT22;6790;49.520;8.504;2023-05-07T03:00:51;12.10;99.90
13436;DHT22;6790;49.520;8.504;2023-05-07T03:03:17;12.10;99.90
13436;DHT22;6790;49.520;8.504;2023-05-07T03:05:43;12.10;99.90
13436;DHT22;6790;49.520;8.504;2023-05-07T03:08:09;12.10;99.90
13436;DHT22;6790;49.520;8.504;2023-05-07T03:10:36;12.10;99.90
13436;DHT22;6790;49.520;8.504;2023-05-07T03:13:02;12.10;99.90
13436;DHT22;6790;49.520;8.504;2023-05-07T03:15:28;12.10;99.90
13436;DHT22;6790;49.520;8.504;2023-05-07T03:17:55;12.10;99.90
13436;DHT22;6790;49.520;8.504;2023-05-07T03:20:20;12.20;99.90
13436;DHT22;6790;49.520;8.504;2023-05-07T03:22:46;12.20;99.90
13436;DHT22;6790;49.520;8.504;2023-05-07T03:25:12;12.20;99.90
13436;DHT22;6790;49.520;8.504;2023-05-07T03:27:38;12.10;99.90
13436;DHT22;6790;49.520;8.504;2023-05-07T03:30:04;12.10;99.90
13436;DHT22;6790;49.520;8.504;2023-05-07T03:32:30;12.10;99.90
13436;DHT22;6790;49.520;8.504;2023-05-07T03:34:55;12.10;99.90
13436;DHT22;6790;49.520;8.504;2023-05-07T03:37:21;12.00;99.90
13436;DHT22;6790;49.520;8.504;2023-05-07T03:39:47;12.00;99.90
13436;DHT22;6790;49.520;8.504;2023-05-07T03:42:13;12.00;99.90
13436;DHT22;6790;49.520;8.504;2023-05-07T03:44:38;12.00;99.90
13436;DHT22;6790;49.520;8.504;2023-05-07T03:47:04;12.00;99.90
13436;DHT22;6790;49.520;8.504;2023-05-07T03:49:30;12.00;99.90
13436;DHT22;6790;49.520;8.504;2023-05-07T03:51:56;12.00;99.90
13436;DHT22;6790;49.520;8.504;2023-05-07T03:54:22;11.90;99.90
13436;DHT22;6790;49.520;8.504;2023-05-07T03:56:47;11.90;99.90
13436;DHT22;6790;49.520;8.504;2023-05-07T03:59:13;11.80;99.90
13436;DHT22;6790;49.520;8.504;2023-05-07T04:01:39;11.80;99.90
13436;DHT22;6790;49.520;8.504;2023-05-07T04:04:05;11.80;99.90
13436;DHT22;6790;49.520;8.504;2023-05-07T04:06:31;11.80;99.90
13436;DHT22;6790;49.520;8.504;2023-05-07T04:08:57;11.80;99.90
13436;DHT22;6790;49.520;8.504;2023-05-07T04:11:22;11.70;99.90
13436;DHT22;6790;49.520;8.504;2023-05-07T04:13:48;11.70;99.90
13436;DHT22;6790;49.520;8.504;2023-05-07T04:16:14;11.70;99.90
13436;DHT22;6790;49.520;8.504;2023-05-07T04:18:40;11.70;99.90
13436;DHT22;6790;49.520;8.504;2023-05-07T04:21:14;11.70;99.90
13436;DHT22;6790;49.520;8.504;2023-05-07T04:23:40;11.70;99.90
13436;DHT22;6790;49.520;8.504;2023-05-07T04:26:06;11.70;99.90
13436;DHT22;6790;49.520;8.504;2023-05-07T04:28:32;11.80;99.90
13436;DHT22;6790;49.520;8.504;2023-05-07T04:30:57;11.80;99.90
13436;DHT22;6790;49.520;8.504;2023-05-07T04:33:23;11.80;99.90
13436;DHT22;6790;49.520;8.504;2023-05-07T04:35:49;11.80;99.90
13436;DHT22;6790;49.520;8.504;2023-05-07T04:38:15;11.90;99.90
13436;DHT22;6790;49.520;8.504;2023-05-07T04:40:42;12.00;99.90
13436;DHT22;6790;49.520;8.504;2023-05-07T04:43:07;12.10;99.90
13436;DHT22;6790;49.520;8.504;2023-05-07T04:45:34;12.10;99.90
13436;DHT22;6790;49.520;8.504;2023-05-07T04:48:01;12.20;99.90
13436;DHT22;6790;49.520;8.504;2023-05-07T04:50:26;12.20;99.90
13436;DHT22;6790;49.520;8.504;2023-05-07T04:52:52;12.30;99.90
13436;DHT22;6790;49.520;8.504;2023-05-07T04:55:18;12.40;99.90
13436;DHT22;6790;49.520;8.504;2023-05-07T04:57:44;12.50;99.90
13436;DHT22;6790;49.520;8.504;2023-05-07T05:00:11;12.50;99.90
13436;DHT22;6790;49.520;8.504;2023-05-07T05:02:40;12.60;99.90
13436;DHT22;6790;49.520;8.504;2023-05-07T05:05:06;12.70;99.90
13436;DHT22;6790;49.520;8.504;2023-05-07T05:07:32;12.80;99.90
13436;DHT22;6790;49.520;8.504;2023-05-07T05:09:58;12.90;99.90
13436;DHT22;6790;49.520;8.504;2023-05-07T05:12:24;12.90;99.90
13436;DHT22;6790;49.520;8.504;2023-05-07T05:14:50;13.00;99.90
13436;DHT22;6790;49.520;8.504;2023-05-07T05:17:16;13.10;99.90
13436;DHT22;6790;49.520;8.504;2023-05-07T05:19:41;13.10;99.90
13436;DHT22;6790;49.520;8.504;2023-05-07T05:22:07;13.20;99.90
13436;DHT22;6790;49.520;8.504;2023-05-07T05:24:32;13.30;99.90
13436;DHT22;6790;49.520;8.504;2023-05-07T05:26:58;13.40;99.90
13436;DHT22;6790;49.520;8.504;2023-05-07T05:29:26;13.50;99.90
13436;DHT22;6790;49.520;8.504;2023-05-07T05:31:52;13.50;99.90
13436;DHT22;6790;49.520;8.504;2023-05-07T05:34:18;13.70;99.90
13436;DHT22;6790;49.520;8.504;2023-05-07T05:36:45;13.80;99.90
13436;DHT22;6790;49.520;8.504;2023-05-07T05:39:11;13.80;99.90
13436;DHT22;6790;49.520;8.504;2023-05-07T05:41:36;13.90;99.90
13436;DHT22;6790;49.520;8.504;2023-05-07T05:44:02;14.00;99.90
13436;DHT22;6790;49.520;8.504;2023-05-07T05:46:28;14.10;99.90
13436;DHT22;6790;49.520;8.504;2023-05-07T05:48:53;14.10;99.90
13436;DHT22;6790;49.520;8.504;2023-05-07T05:51:21;14.20;99.90
13436;DHT22;6790;49.520;8.504;2023-05-07T05:53:46;14.30;99.90
13436;DHT22;6790;49.520;8.504;2023-05-07T05:56:12;14.40;99.90
13436;DHT22;6790;49.520;8.504;2023-05-07T05:58:38;14.50;99.90
13436;DHT22;6790;49.520;8.504;2023-05-07T06:01:03;14.70;99.90
13436;DHT22;6790;49.520;8.504;2023-05-07T06:03:30;14.70;99.90
13436;DHT22;6790;49.520;8.504;2023-05-07T06:05:57;14.90;99.90
13436;DHT22;6790;49.520;8.504;2023-05-07T06:08:23;14.90;99.90
13436;DHT22;6790;49.520;8.504;2023-05-07T06:10:49;15.10;99.90
13436;DHT22;6790;49.520;8.504;2023-05-07T06:13:14;15.40;99.90
13436;DHT22;6790;49.520;8.504;2023-05-07T06:15:40;15.60;99.90
13436;DHT22;6790;49.520;8.504;2023-05-07T06:18:06;15.70;99.90
13436;DHT22;6790;49.520;8.504;2023-05-07T06:20:32;15.90;99.90
13436;DHT22;6790;49.520;8.504;2023-05-07T06:22:57;16.00;99.90
13436;DHT22;6790;49.520;8.504;2023-05-07T06:25:23;16.10;99.90
13436;DHT22;6790;49.520;8.504;2023-05-07T06:27:49;16.20;99.90
13436;DHT22;6790;49.520;8.504;2023-05-07T06:30:14;16.30;99.90
13436;DHT22;6790;49.520;8.504;2023-05-07T06:32:40;16.40;99.90
13436;DHT22;6790;49.520;8.504;2023-05-07T06:35:06;16.40;99.90
13436;DHT22;6790;49.520;8.504;2023-05-07T06:37:32;16.40;99.90
13436;DHT22;6790;49.520;8.504;2023-05-07T06:39:58;16.30;99.90
13436;DHT22;6790;49.520;8.504;2023-05-07T06:42:24;16.40;99.90
13436;DHT22;6790;49.520;8.504;2023-05-07T06:44:49;16.40;99.90
13436;DHT22;6790;49.520;8.504;2023-05-07T06:47:15;16.40;99.90
13436;DHT22;6790;49.520;8.504;2023-05-07T06:49:41;16.50;99.90
13436;DHT22;6790;49.520;8.504;2023-05-07T06:52:06;16.70;99.90
13436;DHT22;6790;49.520;8.504;2023-05-07T06:54:32;16.80;99.90
13436;DHT22;6790;49.520;8.504;2023-05-07T06:56:58;17.10;99.90
13436;DHT22;6790;49.520;8.504;2023-05-07T06:59:24;17.20;99.90
13436;DHT22;6790;49.520;8.504;2023-05-07T07:01:49;17.40;99.90
13436;DHT22;6790;49.520;8.504;2023-05-07T07:04:15;17.50;99.90
13436;DHT22;6790;49.520;8.504;2023-05-07T07:06:41;17.50;99.90
13436;DHT22;6790;49.520;8.504;2023-05-07T07:09:07;17.50;99.90
13436;DHT22;6790;49.520;8.504;2023-05-07T07:11:32;17.50;99.90
13436;DHT22;6790;49.520;8.504;2023-05-07T07:13:58;17.60;99.90
13436;DHT22;6790;49.520;8.504;2023-05-07T07:16:24;17.80;99.90
13436;DHT22;6790;49.520;8.504;2023-05-07T07:18:50;17.90;99.90
13436;DHT22;6790;49.520;8.504;2023-05-07T07:21:16;18.00;99.90
13436;DHT22;6790;49.520;8.504;2023-05-07T07:23:42;18.00;99.90
13436;DHT22;6790;49.520;8.504;2023-05-07T07:26:07;18.20;99.90
13436;DHT22;6790;49.520;8.504;2023-05-07T07:28:33;18.30;99.90
13436;DHT22;6790;49.520;8.504;2023-05-07T07:30:59;18.40;99.90
13436;DHT22;6790;49.520;8.504;2023-05-07T07:33:24;18.50;99.90
13436;DHT22;6790;49.520;8.504;2023-05-07T07:35:50;18.50;99.90
13436;DHT22;6790;49.520;8.504;2023-05-07T07:38:16;18.60;99.90
13436;DHT22;6790;49.520;8.504;2023-05-07T07:40:41;18.70;99.90
13436;DHT22;6790;49.520;8.504;2023-05-07T07:43:09;18.70;99.90
13436;DHT22;6790;49.520;8.504;2023-05-07T07:45:34;18.70;99.90
13436;DHT22;6790;49.520;8.504;2023-05-07T07:48:00;18.60;99.90
13436;DHT22;6790;49.520;8.504;2023-05-07T07:50:26;18.60;99.90
13436;DHT22;6790;49.520;8.504;2023-05-07T07:52:51;18.50;99.90
13436;DHT22;6790;49.520;8.504;2023-05-07T07:55:19;18.50;99.90
13436;DHT22;6790;49.520;8.504;2023-05-07T07:57:48;18.50;99.90
13436;DHT22;6790;49.520;8.504;2023-05-07T08:00:15;18.60;99.90
13436;DHT22;6790;49.520;8.504;2023-05-07T08:02:41;18.50;99.90
13436;DHT22;6790;49.520;8.504;2023-05-07T08:05:07;18.60;99.90
13436;DHT22;6790;49.520;8.504;2023-05-07T08:07:33;18.60;99.90
13436;DHT22;6790;49.520;8.504;2023-05-07T08:09:59;18.60;99.90
13436;DHT22;6790;49.520;8.504;2023-05-07T08:12:25;18.60;99.90
13436;DHT22;6790;49.520;8.504;2023-05-07T08:14:51;18.50;99.90
13436;DHT22;6790;49.520;8.504;2023-05-07T08:17:16;18.50;99.90
13436;DHT22;6790;49.520;8.504;2023-05-07T08:19:42;18.50;99.90
13436;DHT22;6790;49.520;8.504;2023-05-07T08:22:09;18.50;99.90
13436;DHT22;6790;49.520;8.504;2023-05-07T08:24:36;18.50;99.90
13436;DHT22;6790;49.520;8.504;2023-05-07T08:27:02;18.70;99.90
13436;DHT22;6790;49.520;8.504;2023-05-07T08:29:27;18.70;99.90
13436;DHT22;6790;49.520;8.504;2023-05-07T08:31:53;18.80;99.90
13436;DHT22;6790;49.520;8.504;2023-05-07T08:34:19;18.90;99.90
13436;DHT22;6790;49.520;8.504;2023-05-07T08:36:45;18.90;99.90
13436;DHT22;6790;49.520;8.504;2023-05-07T08:39:14;18.90;99.90
13436;DHT22;6790;49.520;8.504;2023-05-07T08:41:44;18.90;99.90
13436;DHT22;6790;49.520;8.504;2023-05-07T08:44:12;18.80;99.90
13436;DHT22;6790;49.520;8.504;2023-05-07T08:46:39;18.90;99.90
13436;DHT22;6790;49.520;8.504;2023-05-07T08:49:07;18.80;99.90
13436;DHT22;6790;49.520;8.504;2023-05-07T08:51:33;18.90;99.90
13436;DHT22;6790;49.520;8.504;2023-05-07T08:53:59;18.70;99.90
13436;DHT22;6790;49.520;8.504;2023-05-07T08:56:26;18.80;99.90
13436;DHT22;6790;49.520;8.504;2023-05-07T08:58:55;18.90;99.90
13436;DHT22;6790;49.520;8.504;2023-05-07T09:01:24;19.10;99.90
13436;DHT22;6790;49.520;8.504;2023-05-07T09:03:50;19.30;99.90
13436;DHT22;6790;49.520;8.504;2023-05-07T09:06:16;19.50;99.90
13436;DHT22;6790;49.520;8.504;2023-05-07T09:08:49;19.70;99.90
13436;DHT22;6790;49.520;8.504;2023-05-07T09:11:16;19.90;99.90
13436;DHT22;6790;49.520;8.504;2023-05-07T09:13:42;20.30;99.90
13436;DHT22;6790;49.520;8.504;2023-05-07T09:16:12;20.60;99.90
13436;DHT22;6790;49.520;8.504;2023-05-07T09:18:42;20.40;99.90
13436;DHT22;6790;49.520;8.504;2023-05-07T09:21:15;20.30;99.90
13436;DHT22;6790;49.520;8.504;2023-05-07T09:23:41;20.50;99.90
13436;DHT22;6790;49.520;8.504;2023-05-07T09:26:07;20.80;99.90
13436;DHT22;6790;49.520;8.504;2023-05-07T09:28:43;21.10;99.90
13436;DHT22;6790;49.520;8.504;2023-05-07T09:31:10;21.40;99.90
13436;DHT22;6790;49.520;8.504;2023-05-07T09:33:37;22.00;99.90
13436;DHT22;6790;49.520;8.504;2023-05-07T09:36:08;22.30;99.90
13436;DHT22;6790;49.520;8.504;2023-05-07T09:38:36;22.20;99.90
13436;DHT22;6790;49.520;8.504;2023-05-07T09:41:12;21.80;99.90
13436;DHT22;6790;49.520;8.504;2023-05-07T09:43:39;21.20;99.90
13436;DHT22;6790;49.520;8.504;2023-05-07T09:46:07;21.10;99.90
13436;DHT22;6790;49.520;8.504;2023-05-07T09:48:37;21.40;99.90
13436;DHT22;6790;49.520;8.504;2023-05-07T09:51:15;21.60;99.90
13436;DHT22;6790;49.520;8.504;2023-05-07T09:53:57;21.90;99.90
13436;DHT22;6790;49.520;8.504;2023-05-07T09:56:25;21.60;99.90
13436;DHT22;6790;49.520;8.504;2023-05-07T09:58:54;22.10;99.90
13436;DHT22;6790;49.520;8.504;2023-05-07T10:01:20;22.50;99.90
13436;DHT22;6790;49.520;8.504;2023-05-07T10:03:49;23.10;99.90
13436;DHT22;6790;49.520;8.504;2023-05-07T10:06:19;23.10;99.90
13436;DHT22;6790;49.520;8.504;2023-05-07T10:08:45;23.40;99.90
13436;DHT22;6790;49.520;8.504;2023-05-07T10:11:28;23.40;99.20
13436;DHT22;6790;49.520;8.504;2023-05-07T10:14:28;23.40;99.90
13436;DHT22;6790;49.520;8.504;2023-05-07T10:17:00;23.30;99.10
13436;DHT22;6790;49.520;8.504;2023-05-07T10:19:37;23.80;99.90
13436;DHT22;6790;49.520;8.504;2023-05-07T10:22:05;23.90;97.40
13436;DHT22;6790;49.520;8.504;2023-05-07T10:24:36;24.00;98.50
13436;DHT22;6790;49.520;8.504;2023-05-07T10:27:05;23.90;99.60
13436;DHT22;6790;49.520;8.504;2023-05-07T10:30:01;23.70;97.20
13436;DHT22;6790;49.520;8.504;2023-05-07T10:32:40;23.60;95.80
13436;DHT22;6790;49.520;8.504;2023-05-07T10:35:21;24.20;98.70
13436;DHT22;6790;49.520;8.504;2023-05-07T10:37:49;24.30;97.30
13436;DHT22;6790;49.520;8.504;2023-05-07T10:40:15;24.40;95.70
13436;DHT22;6790;49.520;8.504;2023-05-07T10:43:01;25.10;96.90
13436;DHT22;6790;49.520;8.504;2023-05-07T10:45:29;25.00;90.80
13436;DHT22;6790;49.520;8.504;2023-05-07T10:48:08;24.40;94.50
13436;DHT22;6790;49.520;8.504;2023-05-07T10:50:41;24.20;94.30
13436;DHT22;6790;49.520;8.504;2023-05-07T10:55:50;25.00;87.50
13436;DHT22;6790;49.520;8.504;2023-05-07T10:58:25;24.90;91.50
13436;DHT22;6790;49.520;8.504;2023-05-07T11:00:56;24.90;92.40
13436;DHT22;6790;49.520;8.504;2023-05-07T11:03:24;25.40;90.30
13436;DHT22;6790;49.520;8.504;2023-05-07T11:08:56;24.90;91.60
13436;DHT22;6790;49.520;8.504;2023-05-07T11:17:06;24.50;90.50
13436;DHT22;6790;49.520;8.504;2023-05-07T11:19:53;25.00;89.30
13436;DHT22;6790;49.520;8.504;2023-05-07T11:25:06;25.40;86.40
13436;DHT22;6790;49.520;8.504;2023-05-07T11:27:32;25.60;83.50
13436;DHT22;6790;49.520;8.504;2023-05-07T11:29:59;25.30;81.30
13436;DHT22;6790;49.520;8.504;2023-05-07T11:32:27;25.40;83.10
13436;DHT22;6790;49.520;8.504;2023-05-07T11:34:55;25.10;86.50
13436;DHT22;6790;49.520;8.504;2023-05-07T11:37:23;25.20;81.50
13436;DHT22;6790;49.520;8.504;2023-05-07T11:39:50;25.50;86.60
13436;DHT22;6790;49.520;8.504;2023-05-07T11:42:35;25.60;84.10
13436;DHT22;6790;49.520;8.504;2023-05-07T11:45:03;25.40;82.10
13436;DHT22;6790;49.520;8.504;2023-05-07T11:47:33;25.40;87.00
13436;DHT22;6790;49.520;8.504;2023-05-07T11:50:04;25.40;83.90
13436;DHT22;6790;49.520;8.504;2023-05-07T11:52:32;25.30;82.90
13436;DHT22;6790;49.520;8.504;2023-05-07T11:55:03;25.40;83.60
13436;DHT22;6790;49.520;8.504;2023-05-07T11:57:29;25.50;82.30
13436;DHT22;6790;49.520;8.504;2023-05-07T11:59:59;26.00;81.80
13436;DHT22;6790;49.520;8.504;2023-05-07T12:02:27;26.40;80.10
13436;DHT22;6790;49.520;8.504;2023-05-07T12:04:54;26.60;85.00
13436;DHT22;6790;49.520;8.504;2023-05-07T12:07:20;26.80;72.30
13436;DHT22;6790;49.520;8.504;2023-05-07T12:09:46;26.60;77.00
13436;DHT22;6790;49.520;8.504;2023-05-07T12:12:13;26.90;74.00
13436;DHT22;6790;49.520;8.504;2023-05-07T12:14:42;26.30;76.00
13436;DHT22;6790;49.520;8.504;2023-05-07T12:17:09;26.40;71.20
13436;DHT22;6790;49.520;8.504;2023-05-07T12:19:37;26.20;75.40
13436;DHT22;6790;49.520;8.504;2023-05-07T12:22:05;26.60;67.10
13436;DHT22;6790;49.520;8.504;2023-05-07T12:24:55;26.60;68.80
13436;DHT22;6790;49.520;8.504;2023-05-07T12:27:22;26.70;66.30
13436;DHT22;6790;49.520;8.504;2023-05-07T12:29:49;26.30;65.80
13436;DHT22;6790;49.520;8.504;2023-05-07T12:32:20;26.60;64.40
13436;DHT22;6790;49.520;8.504;2023-05-07T12:34:49;26.70;68.10
13436;DHT22;6790;49.520;8.504;2023-05-07T12:37:15;26.50;61.70
13436;DHT22;6790;49.520;8.504;2023-05-07T12:40:06;27.30;64.10
13436;DHT22;6790;49.520;8.504;2023-05-07T12:42:36;27.70;62.10
13436;DHT22;6790;49.520;8.504;2023-05-07T12:45:13;27.30;57.50
13436;DHT22;6790;49.520;8.504;2023-05-07T12:47:47;27.00;65.50
13436;DHT22;6790;49.520;8.504;2023-05-07T12:50:14;26.80;67.60
13436;DHT22;6790;49.520;8.504;2023-05-07T12:52:40;26.40;63.20
13436;DHT22;6790;49.520;8.504;2023-05-07T12:55:07;25.70;68.10
13436;DHT22;6790;49.520;8.504;2023-05-07T12:57:45;25.10;70.80
13436;DHT22;6790;49.520;8.504;2023-05-07T13:00:13;25.50;72.30
13436;DHT22;6790;49.520;8.504;2023-05-07T13:02:40;26.30;67.90
13436;DHT22;6790;49.520;8.504;2023-05-07T13:05:07;27.00;66.90
13436;DHT22;6790;49.520;8.504;2023-05-07T13:07:33;27.00;65.00
13436;DHT22;6790;49.520;8.504;2023-05-07T13:09:59;27.20;59.90
13436;DHT22;6790;49.520;8.504;2023-05-07T13:12:25;26.70;59.80
13436;DHT22;6790;49.520;8.504;2023-05-07T13:14:51;26.20;63.10
13436;DHT22;6790;49.520;8.504;2023-05-07T13:17:17;25.70;66.90
13436;DHT22;6790;49.520;8.504;2023-05-07T13:19:43;25.30;68.20
13436;DHT22;6790;49.520;8.504;2023-05-07T13:22:09;25.10;70.20
13436;DHT22;6790;49.520;8.504;2023-05-07T13:24:36;25.00;75.00
13436;DHT22;6790;49.520;8.504;2023-05-07T13:27:01;24.90;69.80
13436;DHT22;6790;49.520;8.504;2023-05-07T13:29:28;24.70;70.80
13436;DHT22;6790;49.520;8.504;2023-05-07T13:31:56;24.60;71.70
13436;DHT22;6790;49.520;8.504;2023-05-07T13:34:22;24.60;71.30
13436;DHT22;6790;49.520;8.504;2023-05-07T13:36:48;24.70;69.40
13436;DHT22;6790;49.520;8.504;2023-05-07T13:39:14;24.70;73.30
13436;DHT22;6790;49.520;8.504;2023-05-07T13:41:39;24.40;67.90
13436;DHT22;6790;49.520;8.504;2023-05-07T13:44:05;24.30;72.10
13436;DHT22;6790;49.520;8.504;2023-05-07T13:46:31;24.10;78.10
13436;DHT22;6790;49.520;8.504;2023-05-07T13:48:56;23.90;75.10
13436;DHT22;6790;49.520;8.504;2023-05-07T13:51:22;23.80;78.60
13436;DHT22;6790;49.520;8.504;2023-05-07T13:53:48;23.60;79.00
13436;DHT22;6790;49.520;8.504;2023-05-07T13:56:14;23.50;78.30
13436;DHT22;6790;49.520;8.504;2023-05-07T13:58:40;23.30;85.40
13436;DHT22;6790;49.520;8.504;2023-05-07T14:01:06;22.80;92.60
13436;DHT22;6790;49.520;8.504;2023-05-07T14:03:32;22.40;95.20
13436;DHT22;6790;49.520;8.504;2023-05-07T14:05:59;22.00;98.90
13436;DHT22;6790;49.520;8.504;2023-05-07T14:08:26;21.80;99.90
13436;DHT22;6790;49.520;8.504;2023-05-07T14:10:53;21.50;99.90
13436;DHT22;6790;49.520;8.504;2023-05-07T14:13:18;21.30;99.90
13436;DHT22;6790;49.520;8.504;2023-05-07T14:15:44;20.80;99.90
13436;DHT22;6790;49.520;8.504;2023-05-07T14:18:12;20.20;99.90
13436;DHT22;6790;49.520;8.504;2023-05-07T14:20:38;19.60;99.90
13436;DHT22;6790;49.520;8.504;2023-05-07T14:23:04;18.90;99.90
13436;DHT22;6790;49.520;8.504;2023-05-07T14:25:30;18.50;99.90
13436;DHT22;6790;49.520;8.504;2023-05-07T14:27:55;18.10;99.90
13436;DHT22;6790;49.520;8.504;2023-05-07T14:30:21;18.00;99.90
13436;DHT22;6790;49.520;8.504;2023-05-07T14:32:49;17.70;99.90
13436;DHT22;6790;49.520;8.504;2023-05-07T14:35:16;17.70;99.90
13436;DHT22;6790;49.520;8.504;2023-05-07T14:37:42;17.60;99.90
13436;DHT22;6790;49.520;8.504;2023-05-07T14:40:08;17.40;99.90
13436;DHT22;6790;49.520;8.504;2023-05-07T14:42:34;17.40;99.90
13436;DHT22;6790;49.520;8.504;2023-05-07T14:45:00;17.20;99.90
13436;DHT22;6790;49.520;8.504;2023-05-07T14:47:26;17.10;99.90
13436;DHT22;6790;49.520;8.504;2023-05-07T14:49:51;17.10;99.90
13436;DHT22;6790;49.520;8.504;2023-05-07T14:52:18;17.00;99.90
13436;DHT22;6790;49.520;8.504;2023-05-07T14:54:44;16.90;99.90
13436;DHT22;6790;49.520;8.504;2023-05-07T14:57:10;16.70;99.90
13436;DHT22;6790;49.520;8.504;2023-05-07T14:59:41;16.40;99.90
13436;DHT22;6790;49.520;8.504;2023-05-07T15:02:08;16.60;99.90
13436;DHT22;6790;49.520;8.504;2023-05-07T15:04:35;16.60;99.90
13436;DHT22;6790;49.520;8.504;2023-05-07T15:07:00;16.60;99.90
13436;DHT22;6790;49.520;8.504;2023-05-07T15:09:26;16.60;99.90
13436;DHT22;6790;49.520;8.504;2023-05-07T15:11:52;16.60;99.90
13436;DHT22;6790;49.520;8.504;2023-05-07T15:14:18;16.60;99.90
13436;DHT22;6790;49.520;8.504;2023-05-07T15:16:44;16.60;99.90
13436;DHT22;6790;49.520;8.504;2023-05-07T15:19:10;16.50;99.90
13436;DHT22;6790;49.520;8.504;2023-05-07T15:21:36;16.40;99.90
13436;DHT22;6790;49.520;8.504;2023-05-07T15:24:02;16.40;99.90
13436;DHT22;6790;49.520;8.504;2023-05-07T15:26:28;16.20;99.90
13436;DHT22;6790;49.520;8.504;2023-05-07T15:28:54;16.20;99.90
13436;DHT22;6790;49.520;8.504;2023-05-07T15:31:23;16.10;99.90
13436;DHT22;6790;49.520;8.504;2023-05-07T15:33:49;16.10;99.90
13436;DHT22;6790;49.520;8.504;2023-05-07T15:36:17;16.00;99.90
13436;DHT22;6790;49.520;8.504;2023-05-07T15:38:43;16.00;99.90
13436;DHT22;6790;49.520;8.504;2023-05-07T15:41:09;16.10;99.90
13436;DHT22;6790;49.520;8.504;2023-05-07T15:43:44;15.80;99.90
13436;DHT22;6790;49.520;8.504;2023-05-07T15:46:11;16.00;99.90
13436;DHT22;6790;49.520;8.504;2023-05-07T15:48:37;15.80;99.90
13436;DHT22;6790;49.520;8.504;2023-05-07T15:51:02;15.50;99.90
13436;DHT22;6790;49.520;8.504;2023-05-07T15:53:29;15.60;99.90
13436;DHT22;6790;49.520;8.504;2023-05-07T15:55:55;15.30;99.90
13436;DHT22;6790;49.520;8.504;2023-05-07T15:58:21;15.20;99.90